createdAt,value
2023-04-09T06:17:14.987Z,49.35
2023-04-09T06:40:02.465Z,69.22
2023-04-09T06:43:05.404Z,43.38
2023-04-09T06:46:07.932Z,42.22
2023-04-09T06:49:10.733Z,56.15
2023-04-09T06:52:13.241Z,38.13
2023-04-09T06:55:17.130Z,39.45
2023-04-09T06:58:21.004Z,70.95
2023-04-09T07:01:23.640Z,61.10
2023-04-09T07:04:26.337Z,38.20
2023-04-09T07:07:29.028Z,33.58
2023-04-09T07:10:33.054Z,35.05
2023-04-09T07:13:35.701Z,36.55
2023-04-09T07:16:38.326Z,33.80
2023-04-09T07:19:40.901Z,39.95
2023-04-09T07:22:43.565Z,35.70
2023-04-09T07:25:47.390Z,37.15
2023-04-09T07:28:49.936Z,38.63
2023-04-09T07:31:52.529Z,32.65
2023-04-09T07:34:55.903Z,41.28
2023-04-09T07:37:59.033Z,36.67
2023-04-09T07:41:02.982Z,38.38
2023-04-09T07:44:06.372Z,37.90
2023-04-09T07:47:09.419Z,43.28
2023-04-09T07:50:12.942Z,36.92
2023-04-09T07:53:15.568Z,37.42
2023-04-09T07:56:19.449Z,38.95
2023-04-09T07:59:21.970Z,45.20
2023-04-09T08:02:24.830Z,37.67
2023-04-09T08:05:28.332Z,35.35
2023-04-09T08:08:31.918Z,40.35
2023-04-09T08:11:36.012Z,39.00
2023-04-09T08:14:38.580Z,36.70
2023-04-09T08:17:41.234Z,41.42
2023-04-09T08:20:45.389Z,44.03
2023-04-09T08:23:51.111Z,34.45
2023-04-09T08:26:54.994Z,38.22
2023-04-09T08:29:57.554Z,34.83
2023-04-09T08:33:00.045Z,35.45
2023-04-09T08:36:03.445Z,33.88
2023-04-09T08:39:06.108Z,35.83
2023-04-09T08:42:12.584Z,37.40
2023-04-09T08:45:15.434Z,31.45
2023-04-09T08:48:19.185Z,38.28
2023-04-09T08:51:23.585Z,33.55
2023-04-09T08:54:26.842Z,34.17
2023-04-09T08:57:31.198Z,32.67
2023-04-09T09:00:33.901Z,38.30
2023-04-09T09:03:56.432Z,31.20
2023-04-09T09:07:07.599Z,31.98
2023-04-09T09:10:10.660Z,30.90
2023-04-09T09:13:23.347Z,30.42
2023-04-09T09:16:26.261Z,33.40
2023-04-09T09:19:31.362Z,34.35
2023-04-09T09:22:55.248Z,31.67
2023-04-09T09:25:58.080Z,32.33
2023-04-09T09:29:05.834Z,33.35
2023-04-09T09:32:14.314Z,30.60
2023-04-09T09:35:17.225Z,28.05
2023-04-09T09:38:19.837Z,27.33
2023-04-09T09:41:22.755Z,27.95
2023-04-09T09:44:34.204Z,33.08
2023-04-09T09:47:37.653Z,29.95
2023-04-09T09:50:42.130Z,32.40
2023-04-09T09:53:48.344Z,27.80
2023-04-09T09:56:56.356Z,27.60
2023-04-09T10:00:03.810Z,27.00
2023-04-09T10:03:13.150Z,25.35
2023-04-09T10:06:15.795Z,25.40
2023-04-09T10:09:19.954Z,26.75
2023-04-09T10:12:24.552Z,27.27
2023-04-09T10:15:30.113Z,30.42
2023-04-09T10:18:33.546Z,25.98
2023-04-09T10:21:43.371Z,28.17
2023-04-09T10:24:47.154Z,25.17
2023-04-09T10:28:00.650Z,27.88
2023-04-09T10:31:05.640Z,25.67
2023-04-09T10:34:10.825Z,23.13
2023-04-09T10:37:16.962Z,27.85
2023-04-09T10:40:20.505Z,24.50
2023-04-09T10:43:23.548Z,26.83
2023-04-09T10:46:29.434Z,26.65
2023-04-09T10:49:38.033Z,25.63
2023-04-09T10:52:42.242Z,23.60
2023-04-09T10:55:49.864Z,25.83
2023-04-09T10:58:52.610Z,24.92
2023-04-09T11:01:56.625Z,25.95
2023-04-09T11:05:07.856Z,25.00
2023-04-09T11:08:11.983Z,23.70
2023-04-09T11:11:16.708Z,24.38
2023-04-09T11:14:20.623Z,21.63
2023-04-09T11:17:24.561Z,24.27
2023-04-09T11:20:27.500Z,22.95
2023-04-09T11:23:30.304Z,24.00
2023-04-09T11:26:37.030Z,24.23
2023-04-09T11:29:39.953Z,22.40
2023-04-09T11:32:44.065Z,22.55
2023-04-09T11:35:46.666Z,21.42
2023-04-09T11:38:50.007Z,21.25
2023-04-09T11:41:53.310Z,21.55
2023-04-09T11:44:56.076Z,22.33
2023-04-09T11:48:00.074Z,19.98
2023-04-09T11:51:03.962Z,21.25
2023-04-09T11:54:07.031Z,24.75
2023-04-09T11:57:09.608Z,19.75
2023-04-09T12:00:13.828Z,18.85
2023-04-09T12:03:17.973Z,19.30
2023-04-09T12:06:22.811Z,20.67
2023-04-09T12:09:25.444Z,19.13
2023-04-09T12:12:27.974Z,17.63
2023-04-09T12:15:33.827Z,22.10
2023-04-09T12:18:38.602Z,17.73
2023-04-09T12:21:48.723Z,21.23
2023-04-09T12:24:51.218Z,17.90
2023-04-09T12:27:54.142Z,17.92
2023-04-09T12:30:57.702Z,21.88
2023-04-09T12:34:01.599Z,21.08
2023-04-09T12:37:04.227Z,20.42
2023-04-09T12:40:08.097Z,16.77
2023-04-09T12:43:10.792Z,16.58
2023-04-09T12:46:13.686Z,19.02
2023-04-09T12:49:18.243Z,19.15
2023-04-09T12:52:22.526Z,17.20
2023-04-09T12:55:25.035Z,19.27
2023-04-09T12:58:27.528Z,16.90
2023-04-09T13:01:30.077Z,15.50
2023-04-09T13:04:34.089Z,21.05
2023-04-09T13:07:36.624Z,17.92
2023-04-09T13:10:39.143Z,18.05
2023-04-09T13:13:42.698Z,16.90
2023-04-09T13:16:45.331Z,18.17
2023-04-09T13:19:49.172Z,16.77
2023-04-09T13:22:52.368Z,15.52
2023-04-09T13:25:55.212Z,16.13
2023-04-09T13:28:58.637Z,15.98
2023-04-09T13:32:02.573Z,18.02
2023-04-09T13:35:07.543Z,17.25
2023-04-09T13:38:10.171Z,19.15
2023-04-09T13:41:12.852Z,18.20
2023-04-09T13:44:15.655Z,19.80
2023-04-09T13:47:18.866Z,17.67
2023-04-09T13:50:22.710Z,20.20
2023-04-09T13:53:25.218Z,18.10
2023-04-09T13:56:28.565Z,18.13
2023-04-09T13:59:31.090Z,18.80
2023-04-09T14:02:33.720Z,21.02
2023-04-09T14:05:37.737Z,18.60
2023-04-09T14:08:40.391Z,23.50
2023-04-09T14:11:42.874Z,19.40
2023-04-09T14:14:45.466Z,20.58
2023-04-09T14:17:48.054Z,24.75
2023-04-09T14:20:51.995Z,19.23
2023-04-09T14:23:54.478Z,22.27
2023-04-09T14:26:57.102Z,19.15
2023-04-09T14:29:59.585Z,21.60
2023-04-09T14:33:02.387Z,22.05
2023-04-09T14:36:06.999Z,21.23
2023-04-09T14:39:09.804Z,21.88
2023-04-09T14:42:12.602Z,24.55
2023-04-09T14:45:15.708Z,26.23
2023-04-09T14:48:18.311Z,23.98
2023-04-09T14:51:22.218Z,19.92
2023-04-09T14:54:24.840Z,23.45
2023-04-09T14:57:27.345Z,24.38
2023-04-09T15:00:29.846Z,26.88
2023-04-09T15:03:32.594Z,23.17
2023-04-09T15:06:37.125Z,26.92
2023-04-09T15:09:39.623Z,23.25
2023-04-09T15:12:42.333Z,26.38
2023-04-09T15:15:45.312Z,21.83
2023-04-09T15:18:51.331Z,23.27
2023-04-09T15:21:56.316Z,23.95
2023-04-09T15:24:58.873Z,24.88
2023-04-09T15:28:01.403Z,20.83
2023-04-09T15:31:03.974Z,22.80
2023-04-09T15:34:06.994Z,22.67
2023-04-09T15:37:11.140Z,20.73
2023-04-09T15:40:14.178Z,21.48
2023-04-09T15:43:17.321Z,19.38
2023-04-09T15:46:19.881Z,20.27
2023-04-09T15:49:22.901Z,23.25
2023-04-09T15:52:27.011Z,23.40
2023-04-09T15:55:29.559Z,18.88
2023-04-09T15:58:32.334Z,24.70
2023-04-09T16:01:36.071Z,19.83
2023-04-09T16:04:38.924Z,24.20
2023-04-09T16:07:42.865Z,20.08
2023-04-09T16:10:45.374Z,20.77
2023-04-09T16:13:47.868Z,25.00
2023-04-09T16:16:50.552Z,20.00
2023-04-09T16:19:53.218Z,20.75
2023-04-09T16:22:57.128Z,24.38
2023-04-09T16:25:59.767Z,21.67
2023-04-09T16:29:04.212Z,26.58
2023-04-09T16:32:06.902Z,23.48
2023-04-09T16:35:09.428Z,28.58
2023-04-09T16:38:13.803Z,24.80
2023-04-09T16:41:16.620Z,22.33
2023-04-09T16:44:19.122Z,24.25
2023-04-09T16:47:21.719Z,25.48
2023-04-09T16:50:24.429Z,21.58
2023-04-09T16:53:28.332Z,21.95
2023-04-09T16:56:30.836Z,23.42
2023-04-09T16:59:33.454Z,22.73
2023-04-09T17:02:39.448Z,18.13
2023-04-09T17:05:42.083Z,22.35
2023-04-09T17:08:46.192Z,20.08
2023-04-09T17:11:49.008Z,23.90
2023-04-09T17:14:51.564Z,21.08
2023-04-09T17:17:54.206Z,19.38
2023-04-09T17:20:57.020Z,20.35
2023-04-09T17:24:02.988Z,25.73
2023-04-09T17:27:05.722Z,25.25
2023-04-09T17:30:09.071Z,22.77
2023-04-09T17:33:12.206Z,22.48
2023-04-09T17:36:14.876Z,24.02
2023-04-09T17:39:18.736Z,26.00
2023-04-09T17:42:22.122Z,23.42
2023-04-09T17:45:24.818Z,23.83
2023-04-09T17:48:28.832Z,22.45
2023-04-09T17:51:32.615Z,21.75
2023-04-09T17:54:36.726Z,27.05
2023-04-09T17:57:39.265Z,23.65
2023-04-09T18:00:42.778Z,21.02
2023-04-09T18:03:45.740Z,22.42
2023-04-09T18:06:48.725Z,26.67
2023-04-09T18:09:52.717Z,30.58
2023-04-09T18:12:55.392Z,21.70
2023-04-09T18:15:57.979Z,22.02
2023-04-09T18:19:00.500Z,21.35
2023-04-09T18:22:03.407Z,24.38
2023-04-09T18:25:08.314Z,21.00
2023-04-09T18:28:10.923Z,22.35
2023-04-09T18:31:13.443Z,21.67
2023-04-09T18:34:16.992Z,23.33
2023-04-09T18:37:19.942Z,39.42
2023-04-09T18:40:23.898Z,42.78
2023-04-09T18:43:26.429Z,41.22
2023-04-09T18:46:30.208Z,31.08
2023-04-09T18:49:32.960Z,38.78
2023-04-09T18:52:38.168Z,47.40
2023-04-09T18:55:42.106Z,37.00
2023-04-09T18:58:44.859Z,38.70
2023-04-09T19:01:47.421Z,35.38
2023-04-09T19:04:50.237Z,30.33
2023-04-09T19:07:58.519Z,29.17
2023-04-09T19:11:02.367Z,25.13
2023-04-09T19:14:04.938Z,21.48
2023-04-09T19:17:07.621Z,24.73
2023-04-09T19:20:10.957Z,24.85
2023-04-09T19:23:13.454Z,25.63
2023-04-09T19:26:18.210Z,23.98
2023-04-09T19:29:20.945Z,25.70
2023-04-09T19:32:23.602Z,23.77
2023-04-09T19:35:26.284Z,27.08
2023-04-09T19:38:28.904Z,24.65
2023-04-09T19:41:33.104Z,26.58
2023-04-09T19:44:35.651Z,31.30
2023-04-09T19:47:38.207Z,22.33
2023-04-09T19:50:43.058Z,24.45
2023-04-09T19:53:47.402Z,28.25
2023-04-09T19:56:51.314Z,16.88
2023-04-09T19:59:54.099Z,27.23
2023-04-09T20:02:57.190Z,17.88
2023-04-09T20:05:59.932Z,19.38
2023-04-09T20:09:02.607Z,15.90
2023-04-09T20:12:08.663Z,15.63
2023-04-09T20:15:12.258Z,16.02
2023-04-09T20:18:14.769Z,14.45
2023-04-09T20:21:17.306Z,16.42
2023-04-09T20:24:19.910Z,16.27
2023-04-09T20:27:23.796Z,18.70
